Startpagina
METAR-TAF:

METAR-TAF

Vliegvelden :

Dallas / Fort Worth, Texas, Verenigde Staten

Dallas/Fort Worth International Airport

breedte: 32-53-49N, lengte: 097-01-19W, hoogte: 183 m

Actueel weer

Dit bericht is 51 minuten geleden gemaakt, om 07:53 UTC
Wind 6 kt uit het oostzuidoosten
Temperatuur 17°C
Vochtigheid 68%
Druk 1005 hPa
Zicht: 16.1 km
Onbewolkt

METAR: KDFW 250753Z 12006KT 10SM CLR 17/11 A2969 RMK AO2 SLP045 T01670106

Tijdstip: 03:44 (08:44 UTC)

Verwachting

Dit bericht is 3 uur en het 24 minuten geleden gemaakt, om 05:20 UTC
Verwachting geldig van 25 om 06 UTC tot 26 om 12 UTC
Wind 8 kt uit het zuidzuidoosten
Zicht: 10 km
Onbewolkt
Van 25 om 1600 UTC
Wind 18 kt uit het zuiden met uitschieters tot 28 kt
Zicht: 10 km
Weinig wolken op 25000 ft
Van 26 om 1000 UTC
Wind 17 kt uit het zuiden
Zicht: 10 km
Gebroken wolken op 2500 ft

TAF: KDFW 250520Z 2506/2612 15008KT P6SM SKC FM251600 18018G28KT P6SM FEW250 FM261000 18017KT P6SM BKN025

Waarnemingen en weersverwachtingen van meer dan 4000 vliegvelden (METAR en TAF).

De beschikbare stations zijn de gele en rode punten op de kaart.

Ga met uw muis naar het station om de naam te zien.

Klik dan om waarnemingen en weersverwachtingen te zien.

kaart wijzigen: klik op de groene knoppen met een zwart kruis om in te zoomen, op de groene knop met een streepje om uit te zoomen of op de groene pijlen voor aangrenzende kaarten.


METAR-TAF: